Pulpca — PHMT — position and weather

sailwx.info

Track history (hours):
 
Tides and Currents Weather Stations Pressure Air Temp Water Temp Dewpoint Dewpoint Depression Visibility Wind Speed Wind Dir Waves Ship Positions

Pulpca

Last reported at 2016-Jun-26 00:15 UTC. Time now 2016-Jun-26 19:11 UTC.
Position N 55°47' E 015°49'.

Length 205 m; draft 6.7 m.

Type: Ship (hazmat cat A). MMSI: 245097000.

Date/timePositionNaut miles runAvg speedWind from/ knotsBaromVisibWave heightAir tempDewpointWater temp
2016-Jun-26 00:15N 55°47' E 015°49'1521.8
2016-Jun-25 23:33N 55°40' E 015°25'2221.9
2016-Jun-25 22:33N 55°28' E 014°53'2121.4
2016-Jun-25 21:34N 55°13' E 014°26'2120.7
2016-Jun-25 20:34N 55°00' E 013°58'2221.6
2016-Jun-25 19:33N 54°53' E 013°23'2221.5
2016-Jun-25 18:33N 54°46' E 012°47'2020.0
2016-Jun-25 17:33N 54°34' E 012°19'1918.9
2016-Jun-25 16:33N 54°22' E 011°54'2120.9
2016-Jun-25 15:33N 54°12' E 011°23'23 1.7
2016-Jun-25 02:21N 53°58' E 010°53'1113.9
2016-Jun-25 01:33N 54°05' E 011°06'1918.8
2016-Jun-25 00:33N 54°17' E 011°31'2019.6
2016-Jun-24 23:33N 54°26' E 012°01'1817.7
2016-Jun-24 22:33N 54°39' E 012°23'2219.7
2016-Jun-24 21:26N 54°49' E 012°56'1719.8
2016-Jun-24 20:33N 54°56' E 013°24'2019.9
2016-Jun-24 19:33N 55°03' E 013°56'1919.4
2016-Jun-24 18:33N 55°16' E 014°22'2019.5
2016-Jun-24 17:33N 55°30' E 014°45'2019.8
2016-Jun-24 16:33N 55°41' E 015°15'2119.7
2016-Jun-24 15:29N 55°51' E 015°47'27618.5
2016-Jun-24 00:33N 59°11' E 021°41'1615.1
2016-Jun-23 23:28N 59°21' E 022°07'1111.7
2016-Jun-23 22:33N 59°27' E 022°24'1312.9
2016-Jun-23 21:33N 59°35' E 022°44'1211.9
2016-Jun-23 20:33N 59°42' E 023°03'5 0.3
2016-Jun-23 02:33N 59°46' E 023°00'1616.4
2016-Jun-23 01:33N 59°31' E 022°49'31418.5
2016-Jun-22 08:33N 55°49' E 015°54'2120.8
2016-Jun-22 07:34N 55°39' E 015°21'1111.2
2016-Jun-22 06:34N 55°33' E 015°05'1918.6
2016-Jun-22 05:33N 55°23' E 014°37'1919.0
2016-Jun-22 04:33N 55°08' E 014°16'1918.5
2016-Jun-22 03:33N 54°58' E 013°49'1918.9
2016-Jun-22 02:33N 54°52' E 013°17'1918.8
2016-Jun-22 01:33N 54°46' E 012°47'1918.9
2016-Jun-22 00:33N 54°35' E 012°20'1818.0
2016-Jun-21 23:33N 54°22' E 011°58'1919.2
2016-Jun-21 22:34N 54°12' E 011°31'2018.8
2016-Jun-21 21:31N 54°02' E 011°02'5 0.1
2016-Jun-20 06:26N 54°06' E 011°08'1820.8
2016-Jun-20 05:33N 54°16' E 011°34'2020.4
2016-Jun-20 04:33N 54°26' E 012°05'5918.7
2016-Jun-20 01:24N 54°45' E 013°41'2221.6
2016-Jun-20 00:24N 54°39' E 014°17'1821.5
2016-Jun-19 23:33N 54°40' E 014°48'2222.2
2016-Jun-19 22:33N 54°43' E 015°27'9221.8
2016-Jun-19 18:18N 54°56' E 018°05'1621.3
2016-Jun-19 17:33N 54°57' E 018°33'2120.7
2016-Jun-19 16:33N 54°42' E 018°58'1716.5
2016-Jun-19 15:33N 54°32' E 018°35'2 1.7
2016-Jun-19 14:32N 54°32' E 018°32'0 0.0
2016-Jun-19 13:32N 54°32' E 018°32'0 0.0
2016-Jun-19 12:32N 54°32' E 018°32'0 0.0
2016-Jun-19 11:32N 54°32' E 018°32'0 0.0
2016-Jun-19 10:32N 54°32' E 018°32'1 1.1
2016-Jun-19 09:33N 54°32' E 018°34'1515.4
2016-Jun-19 08:33N 54°40' E 018°56'2322.7
2016-Jun-19 07:33N 55°02' E 019°08'2222.0
2016-Jun-19 06:33N 55°23' E 019°20'28720.4
2016-Jun-18 16:32N 59°43' E 023°05'1 0.1
2016-Jun-18 01:33N 59°44' E 023°04'33819.9
2016-Jun-17 08:33N 55°42' E 015°42'1919.1
2016-Jun-17 07:33N 55°34' E 015°11'1919.4
2016-Jun-17 06:34N 55°26' E 014°40'1919.5
2016-Jun-17 05:34N 55°10' E 014°19'1918.9
2016-Jun-17 04:34N 54°59' E 013°52'2019.5
2016-Jun-17 03:33N 54°52' E 013°20'1919.4
2016-Jun-17 02:33N 54°45' E 012°49'1919.0
2016-Jun-17 01:33N 54°35' E 012°21'1717.5
2016-Jun-17 00:33N 54°23' E 011°58'1919.1
2016-Jun-16 23:33N 54°14' E 011°30'1919.1
2016-Jun-16 22:33N 54°03' E 011°03'6 0.3
2016-Jun-16 03:19N 53°60' E 010°56'1215.9
2016-Jun-16 02:33N 54°07' E 011°11'1716.8
2016-Jun-16 01:34N 54°17' E 011°35'1716.9
2016-Jun-16 00:34N 54°26' E 011°60'  
Track history (hours):
 
Tides and Currents Weather Stations Pressure Air Temp Water Temp Dewpoint Dewpoint Depression Visibility Wind Speed Wind Dir Waves Ship Positions

Pulpca

Last reported at 2016-Jun-26 00:15 UTC. Time now 2016-Jun-26 19:11 UTC.
Position N 55°47' E 015°49'.

Length 205 m; draft 6.7 m.

Type: Ship (hazmat cat A). MMSI: 245097000.

Date/timePositionNaut miles runAvg speedWind from/ knotsBaromVisibWave heightAir tempDewpointWater temp
2016-Jun-26 00:15N 55°47' E 015°49'1521.8
2016-Jun-25 23:33N 55°40' E 015°25'2221.9
2016-Jun-25 22:33N 55°28' E 014°53'2121.4
2016-Jun-25 21:34N 55°13' E 014°26'2120.7
2016-Jun-25 20:34N 55°00' E 013°58'2221.6
2016-Jun-25 19:33N 54°53' E 013°23'2221.5
2016-Jun-25 18:33N 54°46' E 012°47'2020.0
2016-Jun-25 17:33N 54°34' E 012°19'1918.9
2016-Jun-25 16:33N 54°22' E 011°54'2120.9
2016-Jun-25 15:33N 54°12' E 011°23'23 1.7
2016-Jun-25 02:21N 53°58' E 010°53'1113.9
2016-Jun-25 01:33N 54°05' E 011°06'1918.8
2016-Jun-25 00:33N 54°17' E 011°31'2019.6
2016-Jun-24 23:33N 54°26' E 012°01'1817.7
2016-Jun-24 22:33N 54°39' E 012°23'2219.7
2016-Jun-24 21:26N 54°49' E 012°56'1719.8
2016-Jun-24 20:33N 54°56' E 013°24'2019.9
2016-Jun-24 19:33N 55°03' E 013°56'1919.4
2016-Jun-24 18:33N 55°16' E 014°22'2019.5
2016-Jun-24 17:33N 55°30' E 014°45'2019.8
2016-Jun-24 16:33N 55°41' E 015°15'2119.7
2016-Jun-24 15:29N 55°51' E 015°47'27618.5
2016-Jun-24 00:33N 59°11' E 021°41'1615.1
2016-Jun-23 23:28N 59°21' E 022°07'1111.7
2016-Jun-23 22:33N 59°27' E 022°24'1312.9
2016-Jun-23 21:33N 59°35' E 022°44'1211.9
2016-Jun-23 20:33N 59°42' E 023°03'5 0.3
2016-Jun-23 02:33N 59°46' E 023°00'1616.4
2016-Jun-23 01:33N 59°31' E 022°49'31418.5
2016-Jun-22 08:33N 55°49' E 015°54'2120.8
2016-Jun-22 07:34N 55°39' E 015°21'1111.2
2016-Jun-22 06:34N 55°33' E 015°05'1918.6
2016-Jun-22 05:33N 55°23' E 014°37'1919.0
2016-Jun-22 04:33N 55°08' E 014°16'1918.5
2016-Jun-22 03:33N 54°58' E 013°49'1918.9
2016-Jun-22 02:33N 54°52' E 013°17'1918.8
2016-Jun-22 01:33N 54°46' E 012°47'1918.9
2016-Jun-22 00:33N 54°35' E 012°20'1818.0
2016-Jun-21 23:33N 54°22' E 011°58'1919.2
2016-Jun-21 22:34N 54°12' E 011°31'2018.8
2016-Jun-21 21:31N 54°02' E 011°02'5 0.1
2016-Jun-20 06:26N 54°06' E 011°08'1820.8
2016-Jun-20 05:33N 54°16' E 011°34'2020.4
2016-Jun-20 04:33N 54°26' E 012°05'5918.7
2016-Jun-20 01:24N 54°45' E 013°41'2221.6
2016-Jun-20 00:24N 54°39' E 014°17'1821.5
2016-Jun-19 23:33N 54°40' E 014°48'2222.2
2016-Jun-19 22:33N 54°43' E 015°27'9221.8
2016-Jun-19 18:18N 54°56' E 018°05'1621.3
2016-Jun-19 17:33N 54°57' E 018°33'2120.7
2016-Jun-19 16:33N 54°42' E 018°58'1716.5
2016-Jun-19 15:33N 54°32' E 018°35'2 1.7
2016-Jun-19 14:32N 54°32' E 018°32'0 0.0
2016-Jun-19 13:32N 54°32' E 018°32'0 0.0
2016-Jun-19 12:32N 54°32' E 018°32'0 0.0
2016-Jun-19 11:32N 54°32' E 018°32'0 0.0
2016-Jun-19 10:32N 54°32' E 018°32'1 1.1
2016-Jun-19 09:33N 54°32' E 018°34'1515.4
2016-Jun-19 08:33N 54°40' E 018°56'2322.7
2016-Jun-19 07:33N 55°02' E 019°08'2222.0
2016-Jun-19 06:33N 55°23' E 019°20'28720.4
2016-Jun-18 16:32N 59°43' E 023°05'1 0.1
2016-Jun-18 01:33N 59°44' E 023°04'33819.9
2016-Jun-17 08:33N 55°42' E 015°42'1919.1
2016-Jun-17 07:33N 55°34' E 015°11'1919.4
2016-Jun-17 06:34N 55°26' E 014°40'1919.5
2016-Jun-17 05:34N 55°10' E 014°19'1918.9
2016-Jun-17 04:34N 54°59' E 013°52'2019.5
2016-Jun-17 03:33N 54°52' E 013°20'1919.4
2016-Jun-17 02:33N 54°45' E 012°49'1919.0
2016-Jun-17 01:33N 54°35' E 012°21'1717.5
2016-Jun-17 00:33N 54°23' E 011°58'1919.1
2016-Jun-16 23:33N 54°14' E 011°30'1919.1
2016-Jun-16 22:33N 54°03' E 011°03'6 0.3
2016-Jun-16 03:19N 53°60' E 010°56'1215.9
2016-Jun-16 02:33N 54°07' E 011°11'1716.8
2016-Jun-16 01:34N 54°17' E 011°35'1716.9
2016-Jun-16 00:34N 54°26' E 011°60'  

Dump ship's entire track history